Southbridge, Virginia
Current Conditions -  °F | °C
As of 6:56 AM on Thursday 23 Oct 2014 (Local Time) from KNYG Reporting Station
Broken Clouds Broken Clouds  
Wind Chill: 52°   Ceiling: 7500
Heat Index: 52°   Visibility: 10mi
Dew Point: 41°   Wind: 14mph
Humidity: 66%   Direction: 330°NNW
Pressure: 29.92"   Gusts: 24mph
Location:  38.5728°N, 77.3038°W
Report Text: KNYG 231056Z 33012G21KT 10SM SCT049 BKN075 11/05 A2992 RMK AO2 SLP132 T01110050 $
Loading
Personal Weather Stations






























Interactive Weather Map
Tropical Storm Tracking
New forecast layout! Learn more

10-Day Weather Forecast

Advertisements
Track Severe Weather on mobile